Avon, Ohio
Current Conditions -  °F | °C
As of 5:51 AM on Saturday 01 Nov 2014 (Local Time) from KCLE Reporting Station
Light Rain Light Rain  
Wind Chill: 31°   Ceiling: 1200
Heat Index: 41°   Visibility: 5mi
Dew Point: 38°   Wind: 23mph
Humidity: 89%   Direction: 10°N
Pressure: 30.05"   Gusts: 29mph
Location:  41.47°N, 82.02°W
Report Text: KCLE 010951Z 01020G25KT 5SM -RA BR OVC012 05/03 A3005 RMK AO2 PK WND 04029/0933 SLP182 P0007 T00500033
Loading
Personal Weather Stations






























Interactive Weather Map
Tropical Storm Tracking
New forecast layout! Learn more

10-Day Weather Forecast

Advertisements
Track Severe Weather on mobile